createdAt,value
2023-11-22T00:02:23.537Z,3.30
2023-11-22T00:04:51.740Z,1.88
2023-11-22T00:07:19.776Z,1.75
2023-11-22T00:09:48.404Z,6.68
2023-11-22T00:12:18.816Z,5.10
2023-11-22T00:14:47.135Z,2.90
2023-11-22T00:17:18.587Z,1.80
2023-11-22T00:19:46.587Z,2.13
2023-11-22T00:22:15.818Z,2.67
2023-11-22T00:24:47.027Z,2.70
2023-11-22T00:27:16.616Z,2.08
2023-11-22T00:29:47.592Z,2.10
2023-11-22T00:32:16.977Z,1.88
2023-11-22T00:34:44.877Z,3.47
2023-11-22T00:37:13.051Z,5.07
2023-11-22T00:39:40.944Z,2.88
2023-11-22T00:42:08.982Z,2.30
2023-11-22T00:44:37.267Z,3.35
2023-11-22T00:47:06.224Z,2.72
2023-11-22T00:49:35.578Z,1.63
2023-11-22T00:52:04.412Z,1.90
2023-11-22T00:54:32.551Z,2.55
2023-11-22T00:57:01.041Z,3.17
2023-11-22T00:59:29.065Z,2.25
2023-11-22T01:01:57.200Z,1.90
2023-11-22T01:04:25.338Z,1.90
2023-11-22T01:06:54.645Z,2.60
2023-11-22T01:09:22.625Z,2.63
2023-11-22T01:11:51.554Z,2.45
2023-11-22T01:14:19.804Z,2.28
2023-11-22T01:16:47.773Z,1.75
2023-11-22T01:19:15.835Z,1.90
2023-11-22T01:21:43.875Z,1.88
2023-11-22T01:24:13.298Z,2.45
2023-11-22T01:26:41.475Z,1.60
2023-11-22T01:29:09.436Z,2.20
2023-11-22T01:31:37.494Z,2.45
2023-11-22T01:34:08.370Z,2.83
2023-11-22T01:36:37.638Z,4.15
2023-11-22T01:39:06.128Z,2.38
2023-11-22T01:41:35.558Z,1.88
2023-11-22T01:44:04.027Z,2.47
2023-11-22T01:46:32.478Z,3.63
2023-11-22T01:49:00.495Z,2.25
2023-11-22T01:51:28.983Z,3.20
2023-11-22T01:53:59.469Z,2.42
2023-11-22T01:56:29.050Z,2.35
2023-11-22T01:59:00.635Z,2.20
2023-11-22T02:01:29.861Z,2.75
2023-11-22T02:03:57.938Z,1.92
2023-11-22T02:06:26.920Z,2.33
2023-11-22T02:08:54.835Z,1.92
2023-11-22T02:11:23.624Z,2.53
2023-11-22T02:13:51.769Z,2.22
2023-11-22T02:16:22.014Z,2.63
2023-11-22T02:18:50.558Z,2.67
2023-11-22T02:21:19.161Z,2.13
2023-11-22T02:23:48.797Z,2.70
2023-11-22T02:26:19.907Z,2.53
2023-11-22T02:28:49.317Z,2.72
2023-11-22T02:31:18.648Z,3.22
2023-11-22T02:33:46.614Z,3.13
2023-11-22T02:36:14.608Z,2.60
2023-11-22T02:38:43.466Z,2.45
2023-11-22T02:41:12.971Z,2.05
2023-11-22T02:43:40.964Z,2.58
2023-11-22T02:46:09.196Z,2.83
2023-11-22T02:48:38.547Z,2.58
2023-11-22T02:51:07.738Z,5.00
2023-11-22T02:53:35.919Z,2.38
2023-11-22T02:56:04.089Z,2.15
2023-11-22T02:58:33.693Z,1.85
2023-11-22T03:01:01.660Z,2.15
2023-11-22T03:03:29.750Z,2.05
2023-11-22T03:05:57.797Z,2.42
2023-11-22T03:08:24.781Z,2.15
2023-11-22T03:10:53.174Z,2.63
2023-11-22T03:13:21.212Z,2.55
2023-11-22T03:15:51.932Z,2.13
2023-11-22T03:18:22.665Z,3.22
2023-11-22T03:20:55.220Z,1.77
2023-11-22T03:23:23.386Z,1.85
2023-11-22T03:25:51.331Z,1.50
2023-11-22T03:28:19.274Z,2.60
2023-11-22T03:30:47.177Z,1.60
2023-11-22T03:33:16.794Z,2.10
2023-11-22T03:35:44.830Z,3.15
2023-11-22T03:38:12.807Z,2.70
2023-11-22T03:40:41.373Z,4.22
2023-11-22T03:43:11.294Z,2.45
2023-11-22T03:45:39.341Z,2.22
2023-11-22T03:48:07.551Z,2.53
2023-11-22T03:50:37.351Z,2.70
2023-11-22T03:53:05.352Z,2.97
2023-11-22T03:55:33.281Z,2.58
2023-11-22T03:58:01.223Z,2.22
2023-11-22T04:00:29.423Z,2.38
2023-11-22T04:03:00.609Z,2.65
2023-11-22T04:05:28.634Z,2.10
2023-11-22T04:07:58.060Z,1.67
2023-11-22T04:10:26.108Z,2.05
2023-11-22T04:12:54.192Z,2.70
2023-11-22T04:15:22.254Z,2.90
2023-11-22T04:17:50.795Z,3.30
2023-11-22T04:20:19.256Z,2.55
2023-11-22T04:22:47.309Z,2.65
2023-11-22T04:25:16.700Z,2.67
2023-11-22T04:27:44.700Z,2.58
2023-11-22T04:30:15.286Z,2.65
2023-11-22T04:32:43.780Z,2.45
2023-11-22T04:35:12.215Z,2.90
2023-11-22T04:37:40.268Z,2.10
2023-11-22T04:40:09.773Z,2.25
2023-11-22T04:42:39.382Z,2.42
2023-11-22T04:45:08.212Z,2.80
2023-11-22T04:47:36.527Z,3.30
2023-11-22T04:50:05.835Z,2.35
2023-11-22T04:52:34.375Z,2.13
2023-11-22T04:55:02.286Z,2.30
2023-11-22T04:57:30.182Z,2.22
2023-11-22T05:00:01.760Z,3.47
2023-11-22T05:02:29.846Z,1.80
2023-11-22T05:04:58.167Z,3.00
2023-11-22T05:07:26.161Z,2.75
2023-11-22T05:09:54.069Z,2.92
2023-11-22T05:12:22.076Z,2.97
2023-11-22T05:14:50.021Z,2.15
2023-11-22T05:17:19.405Z,2.03
2023-11-22T05:19:47.427Z,1.95
2023-11-22T05:22:15.367Z,1.33
2023-11-22T05:24:43.326Z,2.58
2023-11-22T05:27:11.789Z,1.60
2023-11-22T05:29:43.611Z,3.78
2023-11-22T05:32:19.826Z,2.88
2023-11-22T05:34:47.757Z,2.05
2023-11-22T05:37:15.742Z,2.20
2023-11-22T05:39:44.055Z,1.75
2023-11-22T05:42:12.873Z,1.77
2023-11-22T05:44:40.878Z,1.88
2023-11-22T05:47:09.052Z,1.73
2023-11-22T05:49:38.539Z,2.10
2023-11-22T05:52:07.354Z,4.43
2023-11-22T05:54:35.383Z,1.23
2023-11-22T05:57:03.316Z,1.88
2023-11-22T05:59:31.490Z,2.92
2023-11-22T06:01:59.468Z,1.98
2023-11-22T06:04:27.494Z,1.35
2023-11-22T06:06:56.801Z,1.20
2023-11-22T06:09:24.959Z,2.10
2023-11-22T06:11:52.846Z,3.30
2023-11-22T06:14:21.342Z,1.40
2023-11-22T06:16:49.350Z,2.63
2023-11-22T06:19:17.293Z,1.95
2023-11-22T06:21:45.198Z,1.45
2023-11-22T06:24:17.079Z,1.33
2023-11-22T06:26:47.269Z,1.38
2023-11-22T06:29:15.773Z,1.40
2023-11-22T06:31:44.402Z,1.55
2023-11-22T06:34:13.448Z,1.60
2023-11-22T06:36:41.481Z,1.40
2023-11-22T06:39:10.343Z,1.50
2023-11-22T06:41:39.704Z,1.55
2023-11-22T06:44:07.870Z,2.88
2023-11-22T06:46:35.909Z,3.17
2023-11-22T06:49:04.020Z,1.35
2023-11-22T06:51:32.932Z,1.98
2023-11-22T06:54:02.187Z,1.50
2023-11-22T06:56:30.567Z,2.70
2023-11-22T06:58:59.939Z,1.40
2023-11-22T07:01:27.882Z,1.60
2023-11-22T07:03:56.324Z,2.42
2023-11-22T07:06:24.581Z,2.47
2023-11-22T07:08:52.524Z,3.05
2023-11-22T07:11:27.245Z,7.68
2023-11-22T07:13:56.698Z,9.55
2023-11-22T07:16:26.295Z,7.22
2023-11-22T07:18:54.351Z,12.18
2023-11-22T07:21:22.863Z,7.22
2023-11-22T07:23:52.460Z,4.60
2023-11-22T07:26:21.879Z,4.28
2023-11-22T07:28:49.961Z,3.70
2023-11-22T07:31:18.141Z,3.03
2023-11-22T07:33:48.311Z,6.50
2023-11-22T07:36:17.034Z,4.88
2023-11-22T07:38:45.106Z,3.50
2023-11-22T07:41:13.257Z,2.55
2023-11-22T07:43:41.223Z,4.53
2023-11-22T07:46:13.796Z,4.82
2023-11-22T07:48:43.085Z,2.75
2023-11-22T07:51:12.538Z,3.35
2023-11-22T07:53:41.654Z,2.67
2023-11-22T07:56:10.723Z,2.78
2023-11-22T07:58:38.857Z,2.17
2023-11-22T08:01:07.586Z,2.30
2023-11-22T08:03:36.321Z,2.72
2023-11-22T08:06:06.304Z,2.17
2023-11-22T08:08:39.894Z,2.05
2023-11-22T08:11:15.927Z,2.78
2023-11-22T08:13:46.096Z,2.35
2023-11-22T08:16:15.315Z,4.20
2023-11-22T08:18:44.732Z,2.58
2023-11-22T08:21:13.231Z,2.50
2023-11-22T08:23:42.907Z,2.55
2023-11-22T08:26:13.061Z,2.25
2023-11-22T08:28:41.526Z,1.67
2023-11-22T08:31:10.923Z,2.50
2023-11-22T08:33:39.834Z,1.95
2023-11-22T08:36:09.175Z,2.30
2023-11-22T08:38:36.593Z,1.73
2023-11-22T08:41:07.259Z,2.45
2023-11-22T08:43:35.854Z,1.83
2023-11-22T08:46:13.678Z,2.72
2023-11-22T08:48:44.219Z,2.30
2023-11-22T08:51:12.939Z,2.25
2023-11-22T08:53:41.456Z,1.77
2023-11-22T08:56:12.310Z,1.63
2023-11-22T08:58:41.140Z,2.45
2023-11-22T09:01:09.622Z,1.80
2023-11-22T09:03:37.825Z,2.05
2023-11-22T09:06:08.473Z,1.98
2023-11-22T09:08:37.428Z,2.00
2023-11-22T09:11:07.600Z,1.55
2023-11-22T09:13:37.312Z,1.75
2023-11-22T09:16:06.699Z,1.73
2023-11-22T09:18:35.202Z,1.85
2023-11-22T09:21:03.411Z,1.92
2023-11-22T09:23:31.451Z,1.75
2023-11-22T09:25:59.446Z,1.80
2023-11-22T09:28:27.368Z,1.50
2023-11-22T09:31:02.670Z,1.40
2023-11-22T09:33:30.766Z,1.55
2023-11-22T09:35:59.258Z,1.92
2023-11-22T09:38:27.313Z,1.65
2023-11-22T09:40:55.621Z,1.65
2023-11-22T09:43:24.553Z,1.55
2023-11-22T09:45:57.680Z,1.13
2023-11-22T09:48:29.763Z,2.08
2023-11-22T09:51:04.306Z,2.60
2023-11-22T09:53:35.718Z,1.40
2023-11-22T09:56:07.643Z,1.55
2023-11-22T09:58:40.494Z,1.58
2023-11-22T10:01:09.046Z,1.38
2023-11-22T10:03:38.761Z,1.42
2023-11-22T10:06:07.504Z,1.40
2023-11-22T10:08:36.885Z,1.60
2023-11-22T10:11:06.292Z,1.67
2023-11-22T10:13:34.399Z,1.60
2023-11-22T10:16:11.965Z,1.17
2023-11-22T10:18:44.046Z,1.52
2023-11-22T10:21:23.120Z,1.40
2023-11-22T10:23:52.828Z,1.50
2023-11-22T10:26:21.020Z,2.35
2023-11-22T10:28:49.024Z,1.55
2023-11-22T10:31:18.170Z,1.33
2023-11-22T10:33:47.674Z,1.10
2023-11-22T10:36:16.126Z,1.30
2023-11-22T10:38:47.314Z,1.75
2023-11-22T10:41:15.833Z,1.02
2023-11-22T10:43:44.017Z,1.17
2023-11-22T10:46:15.179Z,1.98
2023-11-22T10:48:43.762Z,1.35
2023-11-22T10:51:16.009Z,1.30
2023-11-22T10:53:50.668Z,1.10
2023-11-22T10:56:22.135Z,1.13
2023-11-22T10:58:52.888Z,1.05
2023-11-22T11:01:22.722Z,1.48
2023-11-22T11:03:58.361Z,1.42
2023-11-22T11:06:34.543Z,1.30
2023-11-22T11:09:06.520Z,1.92
2023-11-22T11:11:36.090Z,1.10
2023-11-22T11:14:06.527Z,1.95
2023-11-22T11:16:38.935Z,1.35
2023-11-22T11:19:08.906Z,1.00
2023-11-22T11:21:38.322Z,1.20
2023-11-22T11:24:06.875Z,1.92
2023-11-22T11:26:36.799Z,1.15
2023-11-22T11:29:05.262Z,1.30
2023-11-22T11:31:36.587Z,1.25
2023-11-22T11:34:09.658Z,1.10
2023-11-22T11:36:40.254Z,1.30
2023-11-22T11:39:12.080Z,1.60
2023-11-22T11:41:41.004Z,1.30
2023-11-22T11:44:11.027Z,1.05
2023-11-22T11:46:40.451Z,1.38
2023-11-22T11:49:10.062Z,1.23
2023-11-22T11:51:39.712Z,1.83
2023-11-22T11:54:10.406Z,1.38
2023-11-22T11:56:39.165Z,1.25
2023-11-22T11:59:08.158Z,1.30
2023-11-22T12:01:36.253Z,0.90
2023-11-22T12:04:05.357Z,1.13
2023-11-22T12:06:38.022Z,1.98
2023-11-22T12:09:07.607Z,1.45
2023-11-22T12:11:35.762Z,1.92
2023-11-22T12:14:04.769Z,1.23
2023-11-22T12:16:35.206Z,1.08
2023-11-22T12:19:04.022Z,1.42
2023-11-22T12:21:32.933Z,1.10
2023-11-22T12:24:01.466Z,1.10
2023-11-22T12:26:34.418Z,0.80
2023-11-22T12:29:06.097Z,1.08
2023-11-22T12:31:36.301Z,0.80
2023-11-22T12:34:05.576Z,0.95
2023-11-22T12:36:34.135Z,1.10
2023-11-22T12:39:02.043Z,0.85
2023-11-22T12:41:33.862Z,1.20
2023-11-22T12:44:06.204Z,1.00
2023-11-22T12:46:47.839Z,2.22
2023-11-22T12:49:16.458Z,0.90
2023-11-22T12:51:49.158Z,0.77
2023-11-22T12:54:17.312Z,1.55
2023-11-22T12:56:46.663Z,0.88
2023-11-22T12:59:14.673Z,1.27
2023-11-22T13:01:42.780Z,1.08
2023-11-22T13:04:11.514Z,0.82
2023-11-22T13:06:40.119Z,1.67
2023-11-22T13:09:08.659Z,1.88
2023-11-22T13:11:36.695Z,1.33
2023-11-22T13:14:07.067Z,1.45
2023-11-22T13:16:35.909Z,1.20
2023-11-22T13:19:03.838Z,1.38
2023-11-22T13:21:32.411Z,1.60
2023-11-22T13:24:00.916Z,1.85
2023-11-22T13:26:28.935Z,0.88
2023-11-22T13:28:57.166Z,1.63
2023-11-22T13:31:26.607Z,0.75
2023-11-22T13:33:54.564Z,1.65
2023-11-22T13:36:22.683Z,2.42
2023-11-22T13:38:50.633Z,1.10
2023-11-22T13:41:18.821Z,1.00
2023-11-22T13:43:47.792Z,1.30
2023-11-22T13:46:16.577Z,1.42
2023-11-22T13:48:45.938Z,0.98
2023-11-22T13:51:13.853Z,1.55
2023-11-22T13:53:45.578Z,1.23
2023-11-22T13:56:15.201Z,0.90
2023-11-22T13:58:44.323Z,1.63
2023-11-22T14:01:17.595Z,1.00
2023-11-22T14:03:47.141Z,1.45
2023-11-22T14:06:18.078Z,1.23
2023-11-22T14:08:46.401Z,1.95
2023-11-22T14:11:14.855Z,0.80
2023-11-22T14:13:42.837Z,1.17
2023-11-22T14:16:10.904Z,1.17
2023-11-22T14:18:39.899Z,0.77
2023-11-22T14:21:09.782Z,1.13
2023-11-22T14:23:38.002Z,1.23
2023-11-22T14:26:06.622Z,1.33
2023-11-22T14:28:34.787Z,1.13
2023-11-22T14:31:04.610Z,1.88
2023-11-22T14:33:33.538Z,2.40
2023-11-22T14:36:01.589Z,1.35
2023-11-22T14:38:32.125Z,1.42
2023-11-22T14:41:00.059Z,0.93
2023-11-22T14:43:27.932Z,1.52
2023-11-22T14:45:56.716Z,1.02
2023-11-22T14:48:24.831Z,1.02
2023-11-22T14:50:53.007Z,1.08
2023-11-22T14:53:21.054Z,0.98
2023-11-22T14:55:50.474Z,2.47
2023-11-22T14:58:18.582Z,1.30
2023-11-22T15:00:46.558Z,1.05
2023-11-22T15:03:14.942Z,0.73
2023-11-22T15:05:43.448Z,0.80
2023-11-22T15:08:11.370Z,0.77
2023-11-22T15:10:39.314Z,0.70
2023-11-22T15:13:09.886Z,0.75
2023-11-22T15:15:37.994Z,1.90
2023-11-22T15:18:06.047Z,1.77
2023-11-22T15:20:34.850Z,0.98
2023-11-22T15:23:04.423Z,1.08
2023-11-22T15:25:32.632Z,0.68
2023-11-22T15:28:01.255Z,0.82
2023-11-22T15:30:30.624Z,0.70
2023-11-22T15:32:58.649Z,1.20
2023-11-22T15:35:26.903Z,0.90
2023-11-22T15:37:56.090Z,1.13
2023-11-22T15:40:24.304Z,0.77
2023-11-22T15:42:52.225Z,0.60
2023-11-22T15:45:20.296Z,0.68
2023-11-22T15:47:49.714Z,0.65
2023-11-22T15:50:17.958Z,0.50
2023-11-22T15:52:46.078Z,0.88
2023-11-22T15:55:14.567Z,1.00
2023-11-22T15:57:42.610Z,1.10
2023-11-22T16:00:12.350Z,0.60
2023-11-22T16:02:40.997Z,1.15
2023-11-22T16:05:12.725Z,1.25
2023-11-22T16:07:43.168Z,0.82
2023-11-22T16:10:11.617Z,0.88
2023-11-22T16:12:39.666Z,0.90
2023-11-22T16:15:08.273Z,0.55
2023-11-22T16:17:37.114Z,0.60
2023-11-22T16:20:11.969Z,0.52
2023-11-22T16:22:45.667Z,0.73
2023-11-22T16:25:14.761Z,1.05
2023-11-22T16:27:43.040Z,0.85
2023-11-22T16:30:11.431Z,0.73
2023-11-22T16:32:40.417Z,0.73
2023-11-22T16:35:09.478Z,0.50
2023-11-22T16:37:37.467Z,0.75
2023-11-22T16:40:09.833Z,1.20
2023-11-22T16:42:39.044Z,0.93
2023-11-22T16:45:08.204Z,0.60
2023-11-22T16:47:37.726Z,0.60
2023-11-22T16:50:07.365Z,0.65
2023-11-22T16:52:35.433Z,1.40
2023-11-22T16:55:05.069Z,0.70
2023-11-22T16:57:34.519Z,1.27
2023-11-22T17:00:06.176Z,1.08
2023-11-22T17:02:34.264Z,0.85
2023-11-22T17:05:02.380Z,0.70
2023-11-22T17:07:30.558Z,0.60
2023-11-22T17:09:58.836Z,0.50
2023-11-22T17:12:27.651Z,1.80
2023-11-22T17:14:57.039Z,0.77
2023-11-22T17:17:29.100Z,0.63
2023-11-22T17:19:57.134Z,16.40
2023-11-22T17:22:28.404Z,72.55
2023-11-22T17:24:58.680Z,81.85
2023-11-22T17:27:26.886Z,478.30
2023-11-22T17:29:57.244Z,314.30
2023-11-22T17:32:25.404Z,232.10
2023-11-22T17:34:53.536Z,164.93
2023-11-22T17:37:21.471Z,136.65
2023-11-22T17:39:50.836Z,108.70
2023-11-22T17:42:18.793Z,103.22
2023-11-22T17:44:50.366Z,83.28
2023-11-22T17:47:20.737Z,72.55
2023-11-22T17:49:50.083Z,62.03
2023-11-22T17:52:18.281Z,56.13
2023-11-22T17:54:47.579Z,52.53
2023-11-22T17:57:16.115Z,52.75
2023-11-22T17:59:44.068Z,39.55
2023-11-22T18:02:11.998Z,35.35
2023-11-22T18:04:41.353Z,36.53
2023-11-22T18:07:14.919Z,30.60
2023-11-22T18:09:43.892Z,25.85
2023-11-22T18:12:12.063Z,25.35
2023-11-22T18:14:40.066Z,26.05
2023-11-22T18:17:08.018Z,21.90
2023-11-22T18:19:36.034Z,21.20
2023-11-22T18:22:05.703Z,21.95
2023-11-22T18:24:33.957Z,20.13
2023-11-22T18:27:02.074Z,19.17
2023-11-22T18:29:30.164Z,22.13
2023-11-22T18:31:59.721Z,18.10
2023-11-22T18:34:33.166Z,14.88
2023-11-22T18:37:03.783Z,16.70
2023-11-22T18:39:34.857Z,16.35
2023-11-22T18:42:02.928Z,16.00
2023-11-22T18:44:31.992Z,17.40
2023-11-22T18:47:00.106Z,11.98
2023-11-22T18:49:28.273Z,15.98
2023-11-22T18:51:56.226Z,13.95
2023-11-22T18:54:24.328Z,14.00
2023-11-22T18:56:53.668Z,10.23
2023-11-22T18:59:21.766Z,8.57
2023-11-22T19:01:51.409Z,9.98
2023-11-22T19:04:20.667Z,8.07
2023-11-22T19:06:48.546Z,10.73
2023-11-22T19:09:16.563Z,9.85
2023-11-22T19:11:46.051Z,7.85
2023-11-22T19:14:15.817Z,7.28
2023-11-22T19:16:45.478Z,6.45
2023-11-22T19:19:13.630Z,9.57
2023-11-22T19:21:41.531Z,8.90
2023-11-22T19:24:09.970Z,6.90
2023-11-22T19:26:37.964Z,7.43
2023-11-22T19:29:05.919Z,5.10
2023-11-22T19:31:35.161Z,6.13
2023-11-22T19:34:03.300Z,5.82
2023-11-22T19:36:33.056Z,6.90
2023-11-22T19:39:01.006Z,3.90
2023-11-22T19:41:30.569Z,4.70
2023-11-22T19:43:58.653Z,4.55
2023-11-22T19:46:26.660Z,4.53
2023-11-22T19:48:56.221Z,3.90
2023-11-22T19:51:24.128Z,4.20
2023-11-22T19:53:52.108Z,3.92
2023-11-22T19:56:20.290Z,4.15
2023-11-22T19:58:48.226Z,3.97
2023-11-22T20:01:16.218Z,3.92
2023-11-22T20:03:44.208Z,6.38
2023-11-22T20:06:14.450Z,4.47
2023-11-22T20:08:42.452Z,3.20
2023-11-22T20:11:11.669Z,3.15
2023-11-22T20:13:39.879Z,3.20
2023-11-22T20:16:07.998Z,2.80
2023-11-22T20:18:36.010Z,5.28
2023-11-22T20:21:04.018Z,3.03
2023-11-22T20:23:33.362Z,2.50
2023-11-22T20:26:03.981Z,3.55
2023-11-22T20:28:32.916Z,3.58
2023-11-22T20:31:00.828Z,2.35
2023-11-22T20:33:29.145Z,1.83
2023-11-22T20:35:57.258Z,2.50
2023-11-22T20:38:25.342Z,1.30
2023-11-22T20:40:54.699Z,2.83
2023-11-22T20:43:22.974Z,4.50
2023-11-22T20:45:50.980Z,1.45
2023-11-22T20:48:19.095Z,1.60
2023-11-22T20:50:48.465Z,2.17
2023-11-22T20:53:16.464Z,2.03
2023-11-22T20:55:44.412Z,2.42
2023-11-22T20:58:13.681Z,1.55
2023-11-22T21:00:41.553Z,2.92
2023-11-22T21:03:09.922Z,1.60
2023-11-22T21:05:38.029Z,1.77
2023-11-22T21:08:13.242Z,2.45
2023-11-22T21:10:47.239Z,1.55
2023-11-22T21:13:16.514Z,1.38
2023-11-22T21:15:47.004Z,0.93
2023-11-22T21:18:15.330Z,1.20
2023-11-22T21:20:43.457Z,1.55
2023-11-22T21:23:12.774Z,1.50
2023-11-22T21:25:40.700Z,1.00
2023-11-22T21:28:08.794Z,0.45
2023-11-22T21:30:38.120Z,2.38
2023-11-22T21:33:06.115Z,1.00
2023-11-22T21:35:34.122Z,1.40
2023-11-22T21:38:02.205Z,0.98
2023-11-22T21:40:30.299Z,0.95
2023-11-22T21:42:58.513Z,0.40
2023-11-22T21:45:26.566Z,0.68
2023-11-22T21:47:56.233Z,1.25
2023-11-22T21:50:24.223Z,0.52
2023-11-22T21:52:53.384Z,1.75
2023-11-22T21:55:21.279Z,1.02
2023-11-22T21:57:49.267Z,0.43
2023-11-22T22:00:18.002Z,0.73
2023-11-22T22:02:46.193Z,0.68
2023-11-22T22:05:15.879Z,0.95
2023-11-22T22:07:43.790Z,1.67
2023-11-22T22:10:11.800Z,0.82
2023-11-22T22:12:39.794Z,0.57
2023-11-22T22:15:08.459Z,1.88
2023-11-22T22:17:36.653Z,0.63
2023-11-22T22:20:05.463Z,1.85
2023-11-22T22:22:35.047Z,0.70
2023-11-22T22:25:05.027Z,0.55
2023-11-22T22:27:33.578Z,0.30
2023-11-22T22:30:02.311Z,2.40
2023-11-22T22:32:31.746Z,3.13
2023-11-22T22:35:00.404Z,1.25
2023-11-22T22:37:28.336Z,0.50
2023-11-22T22:39:57.605Z,0.80
2023-11-22T22:42:25.558Z,0.63
2023-11-22T22:44:53.790Z,0.93
2023-11-22T22:47:21.739Z,2.30
2023-11-22T22:49:51.063Z,0.82
2023-11-22T22:52:19.221Z,0.60
2023-11-22T22:54:47.197Z,0.68
2023-11-22T22:57:16.799Z,1.33
2023-11-22T22:59:46.120Z,0.77
2023-11-22T23:02:14.812Z,2.10
2023-11-22T23:04:44.392Z,3.20
2023-11-22T23:07:14.809Z,1.05
2023-11-22T23:09:43.161Z,3.40
2023-11-22T23:12:11.442Z,1.23
2023-11-22T23:14:40.827Z,0.70
2023-11-22T23:17:08.901Z,0.50
2023-11-22T23:19:37.087Z,0.40
2023-11-22T23:22:07.534Z,1.02
2023-11-22T23:24:37.385Z,0.90
2023-11-22T23:27:07.252Z,0.43
2023-11-22T23:29:38.477Z,0.57
2023-11-22T23:32:11.234Z,2.30
2023-11-22T23:34:39.888Z,1.45
2023-11-22T23:37:07.957Z,0.50
2023-11-22T23:39:35.974Z,0.65
2023-11-22T23:42:08.486Z,0.30
2023-11-22T23:44:36.597Z,0.35
2023-11-22T23:47:04.629Z,0.65
2023-11-22T23:49:33.925Z,1.00
2023-11-22T23:52:03.976Z,0.80
2023-11-22T23:54:32.582Z,0.73
2023-11-22T23:57:01.006Z,0.25
2023-11-22T23:59:28.937Z,1.15
